Nearby METAR Reports

 

KCPC - Whiteville, North Carolina, USA
Distance from station: NNE 17mi, 28km
Updated: 01/19/2018 4:35am
Clear
Clear
 Wind from calm
Wind: Calm
Temperature: 30°F , -1°C
Dew Point: 18°F , -8°C
Humidity: 59%
Barometer: 30.25 inHg , 1024.4 hPa
Clouds: Clear
Visibility: 10 miles , 16 km
2018/01/19 09:35 KCPC 190935Z AUTO 00000KT 10SM CLR M01/M08 A3025 RMK AO2 T10091081
KCRE - North Myrtle Bea, South Carolina, USA
Distance from station: SSE 19mi, 31km
Updated: 01/19/2018 3:53am
Clear
Clear
 Wind from calm
Wind: Calm
Temperature: 28°F , -2°C
Dew Point: 23°F , -5°C
Humidity: 80%
Barometer: 30.26 inHg , 1024.7 hPa
Clouds: Clear
Visibility: 10 miles , 16 km
2018/01/19 08:53 KCRE 190853Z AUTO 00000KT 10SM CLR M02/M05 A3026 RMK AO1 SLP247 T10171050 56008
 
KHYW - Conway-Horry Cty, South Carolina, USA
Distance from station: SW 22mi, 35km
Updated: 01/19/2018 4:35am
Clear
Clear
 Wind from calm
Wind: Calm
Temperature: 23°F , -5°C
Dew Point: 23°F , -5°C
Humidity: 100%
Barometer: 30.28 inHg , 1025.4 hPa
Clouds: Clear
Visibility: 7 miles , 11 km
2018/01/19 09:35 KHYW 190935Z AUTO 00000KT 7SM CLR M05/M05 A3028 RMK AO2
KMAO - Marion, South Carolina, USA
Distance from station: WNW 28mi, 45km
Updated: 01/19/2018 4:35am
Clear
Clear
 Wind from SW
Wind: SW 3 mph , 6 km/h
Temperature: 27°F , -3°C
Dew Point: 19°F , -7°C
Humidity: 74%
Barometer: 30.27 inHg , 1025.1 hPa
Clouds: Clear
Visibility: 10 miles , 16 km
2018/01/19 09:35 KMAO 190935Z AUTO 22003KT 10SM CLR M03/M07 A3027 RMK AO2
 
KMYR - Myrtle Beach, South Carolina, USA
Distance from station: S 28mi, 45km
Updated: 01/19/2018 3:56am
Clear
Clear
 Wind from W
Wind: W 8 mph , 13 km/h
Temperature: 30°F , -1°C
Wind Chill: 22°F , -6°C
Dew Point: 19°F , -7°C
Humidity: 64%
Barometer: 30.28 inHg , 1025.4 hPa
Clouds: Clear
Visibility: 10 miles , 16 km
2018/01/19 08:56 KMYR 190856Z AUTO 28007KT 10SM CLR M01/M07 A3028 RMK AO2 SLP255 T10061067 55008 FZRANO
KLBT - Lumberton, North Carolina, USA
Distance from station: NNW 39mi, 62km
Updated: 01/19/2018 3:54am
Clear
Clear
 Wind from calm
Wind: Calm
Temperature: 23°F , -5°C
Dew Point: 19°F , -7°C
Humidity: 86%
Barometer: 30.24 inHg , 1024 hPa
Clouds: Clear
Visibility: 10 miles , 16 km
2018/01/19 08:54 KLBT 190854Z AUTO 00000KT 10SM CLR M05/M07 A3024 RMK AO2 SLP241 T10501072 58007
 
KSUT - Southport, North Carolina, USA
Distance from station: E 46mi, 74km
Updated: 01/19/2018 4:35am
Clear
Clear
 Wind from W
Wind: W 3 mph , 6 km/h
Temperature: 32°F , 0°C
Dew Point: 18°F , -8°C
Humidity: 55%
Barometer: 30.26 inHg , 1024.7 hPa
Clouds: Clear
Visibility: 10 miles , 16 km
2018/01/19 09:35 KSUT 190935Z AUTO 27003KT 10SM CLR 00/M08 A3026 RMK AO2 T00001077
KFLO - Florence, South Carolina, USA
Distance from station: W 50mi, 81km
Updated: 01/19/2018 3:53am
Clear
Clear
 Wind from calm
Wind: Calm
Temperature: 25°F , -4°C
Dew Point: 19°F , -7°C
Humidity: 80%
Barometer: 30.26 inHg , 1024.7 hPa
Clouds: Clear
Visibility: 10 miles , 16 km
2018/01/19 08:53 KFLO 190853Z 00000KT 10SM CLR M04/M07 A3026 RMK AO2 SLP247 T10441072 58007